sensor_id;sensor_type;location;lat;lon;timestamp;temperature;humidity
23311;DHT22;11828;51.508;18.118;2022-11-14T00:00:26;22.50;35.90
23311;DHT22;11828;51.508;18.118;2022-11-14T00:03:08;22.50;35.90
23311;DHT22;11828;51.508;18.118;2022-11-14T00:05:39;22.40;36.00
23311;DHT22;11828;51.508;18.118;2022-11-14T00:08:09;22.50;36.00
23311;DHT22;11828;51.508;18.118;2022-11-14T00:10:40;22.60;36.00
23311;DHT22;11828;51.508;18.118;2022-11-14T00:13:06;22.60;35.80
23311;DHT22;11828;51.508;18.118;2022-11-14T00:15:32;22.60;36.00
23311;DHT22;11828;51.508;18.118;2022-11-14T00:17:58;22.70;35.70
23311;DHT22;11828;51.508;18.118;2022-11-14T00:20:24;22.80;35.60
23311;DHT22;11828;51.508;18.118;2022-11-14T00:22:50;22.50;35.70
23311;DHT22;11828;51.508;18.118;2022-11-14T00:25:16;22.70;35.90
23311;DHT22;11828;51.508;18.118;2022-11-14T00:27:42;22.80;35.80
23311;DHT22;11828;51.508;18.118;2022-11-14T00:30:08;22.80;35.60
23311;DHT22;11828;51.508;18.118;2022-11-14T00:32:35;22.90;35.80
23311;DHT22;11828;51.508;18.118;2022-11-14T00:35:01;22.90;35.80
23311;DHT22;11828;51.508;18.118;2022-11-14T00:37:27;23.00;35.70
23311;DHT22;11828;51.508;18.118;2022-11-14T00:39:53;23.00;35.50
23311;DHT22;11828;51.508;18.118;2022-11-14T00:42:19;23.10;35.40
23311;DHT22;11828;51.508;18.118;2022-11-14T00:44:46;23.30;35.30
23311;DHT22;11828;51.508;18.118;2022-11-14T00:47:12;23.30;35.20
23311;DHT22;11828;51.508;18.118;2022-11-14T00:49:37;23.30;35.10
23311;DHT22;11828;51.508;18.118;2022-11-14T00:52:04;23.20;35.20
23311;DHT22;11828;51.508;18.118;2022-11-14T00:54:30;23.40;35.20
23311;DHT22;11828;51.508;18.118;2022-11-14T00:56:56;23.40;35.00
23311;DHT22;11828;51.508;18.118;2022-11-14T00:59:22;23.50;34.90
23311;DHT22;11828;51.508;18.118;2022-11-14T01:01:48;23.50;34.80
23311;DHT22;11828;51.508;18.118;2022-11-14T01:04:14;23.60;34.80
23311;DHT22;11828;51.508;18.118;2022-11-14T01:06:40;23.60;34.80
23311;DHT22;11828;51.508;18.118;2022-11-14T01:09:07;23.70;34.70
23311;DHT22;11828;51.508;18.118;2022-11-14T01:11:33;23.70;34.60
23311;DHT22;11828;51.508;18.118;2022-11-14T01:13:59;23.70;34.60
23311;DHT22;11828;51.508;18.118;2022-11-14T01:16:25;23.80;34.50
23311;DHT22;11828;51.508;18.118;2022-11-14T01:18:51;23.70;34.40
23311;DHT22;11828;51.508;18.118;2022-11-14T01:21:17;23.80;34.50
23311;DHT22;11828;51.508;18.118;2022-11-14T01:23:43;23.70;34.50
23311;DHT22;11828;51.508;18.118;2022-11-14T01:26:11;23.70;34.50
23311;DHT22;11828;51.508;18.118;2022-11-14T01:28:39;23.60;34.60
23311;DHT22;11828;51.508;18.118;2022-11-14T01:31:24;23.70;34.60
23311;DHT22;11828;51.508;18.118;2022-11-14T01:33:52;23.60;34.80
23311;DHT22;11828;51.508;18.118;2022-11-14T01:36:19;23.60;34.70
23311;DHT22;11828;51.508;18.118;2022-11-14T01:38:46;23.70;34.80
23311;DHT22;11828;51.508;18.118;2022-11-14T01:41:13;23.70;34.80
23311;DHT22;11828;51.508;18.118;2022-11-14T01:43:41;23.70;34.70
23311;DHT22;11828;51.508;18.118;2022-11-14T01:54:52;23.40;35.00
23311;DHT22;11828;51.508;18.118;2022-11-14T01:57:30;23.40;35.10
23311;DHT22;11828;51.508;18.118;2022-11-14T02:00:02;23.40;35.10
23311;DHT22;11828;51.508;18.118;2022-11-14T02:02:31;23.40;35.20
23311;DHT22;11828;51.508;18.118;2022-11-14T02:05:04;23.10;35.40
23311;DHT22;11828;51.508;18.118;2022-11-14T02:07:34;23.10;35.60
23311;DHT22;11828;51.508;18.118;2022-11-14T02:10:09;23.20;35.60
23311;DHT22;11828;51.508;18.118;2022-11-14T02:12:42;23.10;35.60
23311;DHT22;11828;51.508;18.118;2022-11-14T02:15:09;23.00;35.80
23311;DHT22;11828;51.508;18.118;2022-11-14T02:17:35;22.90;36.00
23311;DHT22;11828;51.508;18.118;2022-11-14T02:22:40;22.70;36.40
23311;DHT22;11828;51.508;18.118;2022-11-14T02:25:09;22.60;36.50
23311;DHT22;11828;51.508;18.118;2022-11-14T02:27:37;22.40;36.70
23311;DHT22;11828;51.508;18.118;2022-11-14T02:30:16;22.60;36.70
23311;DHT22;11828;51.508;18.118;2022-11-14T02:32:44;22.60;36.70
23311;DHT22;11828;51.508;18.118;2022-11-14T02:35:10;22.50;36.80
23311;DHT22;11828;51.508;18.118;2022-11-14T02:37:37;22.50;36.90
23311;DHT22;11828;51.508;18.118;2022-11-14T02:40:04;22.60;36.80
23311;DHT22;11828;51.508;18.118;2022-11-14T02:42:31;22.50;36.80
23311;DHT22;11828;51.508;18.118;2022-11-14T02:44:57;22.30;37.30
23311;DHT22;11828;51.508;18.118;2022-11-14T02:47:23;22.30;37.30
23311;DHT22;11828;51.508;18.118;2022-11-14T02:49:50;22.20;37.40
23311;DHT22;11828;51.508;18.118;2022-11-14T02:52:16;22.40;37.40
23311;DHT22;11828;51.508;18.118;2022-11-14T02:54:42;22.60;37.00
23311;DHT22;11828;51.508;18.118;2022-11-14T02:57:09;22.60;36.70
23311;DHT22;11828;51.508;18.118;2022-11-14T02:59:34;22.60;36.70
23311;DHT22;11828;51.508;18.118;2022-11-14T03:02:00;22.60;36.70
23311;DHT22;11828;51.508;18.118;2022-11-14T03:04:27;22.70;36.80
23311;DHT22;11828;51.508;18.118;2022-11-14T03:06:52;22.60;36.70
23311;DHT22;11828;51.508;18.118;2022-11-14T03:09:18;22.60;36.60
23311;DHT22;11828;51.508;18.118;2022-11-14T03:11:45;22.70;36.60
23311;DHT22;11828;51.508;18.118;2022-11-14T03:14:11;22.90;36.40
23311;DHT22;11828;51.508;18.118;2022-11-14T03:16:37;22.90;36.30
23311;DHT22;11828;51.508;18.118;2022-11-14T03:19:03;22.90;36.30
23311;DHT22;11828;51.508;18.118;2022-11-14T03:21:29;22.90;36.20
23311;DHT22;11828;51.508;18.118;2022-11-14T03:23:55;23.00;36.10
23311;DHT22;11828;51.508;18.118;2022-11-14T03:26:21;23.10;36.10
23311;DHT22;11828;51.508;18.118;2022-11-14T03:28:47;23.00;35.90
23311;DHT22;11828;51.508;18.118;2022-11-14T03:31:14;22.90;36.10
23311;DHT22;11828;51.508;18.118;2022-11-14T03:33:40;22.80;36.30
23311;DHT22;11828;51.508;18.118;2022-11-14T03:36:06;22.90;36.30
23311;DHT22;11828;51.508;18.118;2022-11-14T03:38:33;22.90;36.20
23311;DHT22;11828;51.508;18.118;2022-11-14T03:41:00;22.70;36.20
23311;DHT22;11828;51.508;18.118;2022-11-14T03:43:31;22.60;36.40
23311;DHT22;11828;51.508;18.118;2022-11-14T03:45:59;22.50;36.70
23311;DHT22;11828;51.508;18.118;2022-11-14T03:48:27;22.40;36.90
23311;DHT22;11828;51.508;18.118;2022-11-14T03:50:54;22.60;36.80
23311;DHT22;11828;51.508;18.118;2022-11-14T03:53:20;22.60;36.80
23311;DHT22;11828;51.508;18.118;2022-11-14T03:55:46;22.40;36.80
23311;DHT22;11828;51.508;18.118;2022-11-14T03:58:12;22.20;37.00
23311;DHT22;11828;51.508;18.118;2022-11-14T04:00:39;22.10;37.30
23311;DHT22;11828;51.508;18.118;2022-11-14T04:03:05;22.20;37.40
23311;DHT22;11828;51.508;18.118;2022-11-14T04:05:31;22.10;37.40
23311;DHT22;11828;51.508;18.118;2022-11-14T04:07:57;22.20;37.50
23311;DHT22;11828;51.508;18.118;2022-11-14T04:10:23;22.10;37.50
23311;DHT22;11828;51.508;18.118;2022-11-14T04:12:53;22.10;37.30
23311;DHT22;11828;51.508;18.118;2022-11-14T04:15:19;22.00;37.40
23311;DHT22;11828;51.508;18.118;2022-11-14T04:17:46;22.00;37.50
23311;DHT22;11828;51.508;18.118;2022-11-14T04:20:13;21.90;37.60
23311;DHT22;11828;51.508;18.118;2022-11-14T04:22:39;21.70;37.60
23311;DHT22;11828;51.508;18.118;2022-11-14T04:25:07;21.80;37.90
23311;DHT22;11828;51.508;18.118;2022-11-14T04:27:33;21.70;37.90
23311;DHT22;11828;51.508;18.118;2022-11-14T04:30:00;21.30;38.00
23311;DHT22;11828;51.508;18.118;2022-11-14T04:32:25;21.20;38.50
23311;DHT22;11828;51.508;18.118;2022-11-14T04:34:52;21.10;38.70
23311;DHT22;11828;51.508;18.118;2022-11-14T04:37:18;20.80;39.00
23311;DHT22;11828;51.508;18.118;2022-11-14T04:39:44;20.90;39.20
23311;DHT22;11828;51.508;18.118;2022-11-14T04:42:10;21.10;39.30
23311;DHT22;11828;51.508;18.118;2022-11-14T04:44:37;21.10;39.00
23311;DHT22;11828;51.508;18.118;2022-11-14T04:47:03;21.20;38.80
23311;DHT22;11828;51.508;18.118;2022-11-14T04:49:29;21.20;38.60
23311;DHT22;11828;51.508;18.118;2022-11-14T04:51:55;21.30;38.60
23311;DHT22;11828;51.508;18.118;2022-11-14T04:54:21;21.10;38.50
23311;DHT22;11828;51.508;18.118;2022-11-14T04:56:47;21.10;38.80
23311;DHT22;11828;51.508;18.118;2022-11-14T04:59:14;21.20;39.40
23311;DHT22;11828;51.508;18.118;2022-11-14T05:01:40;21.40;38.60
23311;DHT22;11828;51.508;18.118;2022-11-14T05:04:06;21.50;38.40
23311;DHT22;11828;51.508;18.118;2022-11-14T05:06:32;21.70;38.00
23311;DHT22;11828;51.508;18.118;2022-11-14T05:08:59;21.50;37.80
23311;DHT22;11828;51.508;18.118;2022-11-14T05:11:25;21.40;38.10
23311;DHT22;11828;51.508;18.118;2022-11-14T05:13:52;21.50;38.00
23311;DHT22;11828;51.508;18.118;2022-11-14T05:16:18;21.50;38.20
23311;DHT22;11828;51.508;18.118;2022-11-14T05:18:44;21.40;38.20
23311;DHT22;11828;51.508;18.118;2022-11-14T05:21:14;21.50;38.20
23311;DHT22;11828;51.508;18.118;2022-11-14T05:23:40;21.70;38.00
23311;DHT22;11828;51.508;18.118;2022-11-14T05:26:08;21.80;37.70
23311;DHT22;11828;51.508;18.118;2022-11-14T05:28:35;21.80;37.70
23311;DHT22;11828;51.508;18.118;2022-11-14T05:31:07;21.70;37.60
23311;DHT22;11828;51.508;18.118;2022-11-14T05:33:35;21.60;37.70
23311;DHT22;11828;51.508;18.118;2022-11-14T05:36:09;21.70;37.60
23311;DHT22;11828;51.508;18.118;2022-11-14T05:38:37;21.50;37.60
23311;DHT22;11828;51.508;18.118;2022-11-14T05:41:07;21.30;37.70
23311;DHT22;11828;51.508;18.118;2022-11-14T05:43:39;21.10;37.90
23311;DHT22;11828;51.508;18.118;2022-11-14T05:46:08;21.10;38.20
23311;DHT22;11828;51.508;18.118;2022-11-14T05:48:36;21.00;38.40
23311;DHT22;11828;51.508;18.118;2022-11-14T05:51:04;21.00;38.60
23311;DHT22;11828;51.508;18.118;2022-11-14T05:53:32;21.00;38.50
23311;DHT22;11828;51.508;18.118;2022-11-14T05:56:08;21.00;38.50
23311;DHT22;11828;51.508;18.118;2022-11-14T05:58:36;20.80;38.60
23311;DHT22;11828;51.508;18.118;2022-11-14T06:01:15;20.60;38.90
23311;DHT22;11828;51.508;18.118;2022-11-14T06:03:45;20.60;39.10
23311;DHT22;11828;51.508;18.118;2022-11-14T06:06:18;20.60;39.20
23311;DHT22;11828;51.508;18.118;2022-11-14T06:08:45;20.80;39.20
23311;DHT22;11828;51.508;18.118;2022-11-14T06:11:19;20.90;38.90
23311;DHT22;11828;51.508;18.118;2022-11-14T06:13:46;20.80;38.80
23311;DHT22;11828;51.508;18.118;2022-11-14T06:16:17;20.60;38.80
23311;DHT22;11828;51.508;18.118;2022-11-14T06:18:45;20.50;39.10
23311;DHT22;11828;51.508;18.118;2022-11-14T06:21:16;20.60;39.30
23311;DHT22;11828;51.508;18.118;2022-11-14T06:23:44;20.80;39.20
23311;DHT22;11828;51.508;18.118;2022-11-14T06:26:23;20.70;38.80
23311;DHT22;11828;51.508;18.118;2022-11-14T06:28:52;20.50;39.10
23311;DHT22;11828;51.508;18.118;2022-11-14T06:31:19;20.50;39.00
23311;DHT22;11828;51.508;18.118;2022-11-14T06:33:45;20.50;39.10
23311;DHT22;11828;51.508;18.118;2022-11-14T06:36:12;20.60;39.10
23311;DHT22;11828;51.508;18.118;2022-11-14T06:38:39;20.60;39.10
23311;DHT22;11828;51.508;18.118;2022-11-14T06:43:42;20.60;39.20
23311;DHT22;11828;51.508;18.118;2022-11-14T06:46:17;20.60;39.10
23311;DHT22;11828;51.508;18.118;2022-11-14T06:48:45;20.70;39.10
23311;DHT22;11828;51.508;18.118;2022-11-14T06:51:13;20.50;39.10
23311;DHT22;11828;51.508;18.118;2022-11-14T06:53:40;20.80;39.70
23311;DHT22;11828;51.508;18.118;2022-11-14T06:56:12;20.90;38.80
23311;DHT22;11828;51.508;18.118;2022-11-14T06:58:45;20.80;38.80
23311;DHT22;11828;51.508;18.118;2022-11-14T07:01:20;20.90;39.00
23311;DHT22;11828;51.508;18.118;2022-11-14T07:03:48;21.00;38.70
23311;DHT22;11828;51.508;18.118;2022-11-14T07:06:18;21.10;38.60
23311;DHT22;11828;51.508;18.118;2022-11-14T07:08:45;21.40;38.40
23311;DHT22;11828;51.508;18.118;2022-11-14T07:11:17;21.30;38.20
23311;DHT22;11828;51.508;18.118;2022-11-14T07:13:51;21.20;38.10
23311;DHT22;11828;51.508;18.118;2022-11-14T07:16:23;21.20;38.10
23311;DHT22;11828;51.508;18.118;2022-11-14T07:18:50;21.00;38.20
23311;DHT22;11828;51.508;18.118;2022-11-14T07:21:17;20.70;38.60
23311;DHT22;11828;51.508;18.118;2022-11-14T07:23:42;20.90;39.50
23311;DHT22;11828;51.508;18.118;2022-11-14T07:26:10;21.00;38.70
23311;DHT22;11828;51.508;18.118;2022-11-14T07:28:40;21.00;38.70
23311;DHT22;11828;51.508;18.118;2022-11-14T07:31:13;21.20;38.70
23311;DHT22;11828;51.508;18.118;2022-11-14T07:33:41;21.20;38.50
23311;DHT22;11828;51.508;18.118;2022-11-14T07:36:09;21.30;38.40
23311;DHT22;11828;51.508;18.118;2022-11-14T07:38:37;21.30;38.10
23311;DHT22;11828;51.508;18.118;2022-11-14T07:41:05;21.50;38.00
23311;DHT22;11828;51.508;18.118;2022-11-14T07:43:35;21.50;38.00
23311;DHT22;11828;51.508;18.118;2022-11-14T07:46:10;21.60;38.00
23311;DHT22;11828;51.508;18.118;2022-11-14T07:48:40;21.80;38.00
23311;DHT22;11828;51.508;18.118;2022-11-14T07:51:09;21.80;37.60
23311;DHT22;11828;51.508;18.118;2022-11-14T07:53:39;21.80;37.60
23311;DHT22;11828;51.508;18.118;2022-11-14T07:56:07;21.90;37.60
23311;DHT22;11828;51.508;18.118;2022-11-14T07:58:38;21.80;37.40
23311;DHT22;11828;51.508;18.118;2022-11-14T08:01:06;21.90;37.40
23311;DHT22;11828;51.508;18.118;2022-11-14T08:03:34;22.20;37.40
23311;DHT22;11828;51.508;18.118;2022-11-14T08:06:06;22.40;37.20
23311;DHT22;11828;51.508;18.118;2022-11-14T08:08:34;22.70;36.80
23311;DHT22;11828;51.508;18.118;2022-11-14T08:11:00;22.60;36.40
23311;DHT22;11828;51.508;18.118;2022-11-14T08:13:27;22.60;36.40
23311;DHT22;11828;51.508;18.118;2022-11-14T08:15:54;22.80;36.40
23311;DHT22;11828;51.508;18.118;2022-11-14T08:18:20;23.10;36.20
23311;DHT22;11828;51.508;18.118;2022-11-14T08:20:47;23.20;35.70
23311;DHT22;11828;51.508;18.118;2022-11-14T08:23:14;23.50;35.30
23311;DHT22;11828;51.508;18.118;2022-11-14T08:25:40;23.60;35.00
23311;DHT22;11828;51.508;18.118;2022-11-14T08:28:07;23.50;35.10
23311;DHT22;11828;51.508;18.118;2022-11-14T08:30:33;23.60;35.20
23311;DHT22;11828;51.508;18.118;2022-11-14T08:33:04;24.00;35.40
23311;DHT22;11828;51.508;18.118;2022-11-14T08:35:32;24.50;34.70
23311;DHT22;11828;51.508;18.118;2022-11-14T08:38:00;24.80;33.60
23311;DHT22;11828;51.508;18.118;2022-11-14T08:40:28;25.10;32.70
23311;DHT22;11828;51.508;18.118;2022-11-14T08:42:59;25.10;32.20
23311;DHT22;11828;51.508;18.118;2022-11-14T08:45:28;25.10;32.20
23311;DHT22;11828;51.508;18.118;2022-11-14T08:47:54;25.20;32.30
23311;DHT22;11828;51.508;18.118;2022-11-14T08:50:20;25.30;32.00
23311;DHT22;11828;51.508;18.118;2022-11-14T08:52:50;25.20;31.60
23311;DHT22;11828;51.508;18.118;2022-11-14T08:55:17;25.30;31.90
23311;DHT22;11828;51.508;18.118;2022-11-14T08:57:44;25.30;31.80
23311;DHT22;11828;51.508;18.118;2022-11-14T09:00:10;25.20;31.80
23311;DHT22;11828;51.508;18.118;2022-11-14T09:02:37;25.20;31.90
23311;DHT22;11828;51.508;18.118;2022-11-14T09:05:03;25.40;31.80
23311;DHT22;11828;51.508;18.118;2022-11-14T09:07:29;25.50;31.60
23311;DHT22;11828;51.508;18.118;2022-11-14T09:09:55;25.50;31.60
23311;DHT22;11828;51.508;18.118;2022-11-14T09:12:21;25.60;31.70
23311;DHT22;11828;51.508;18.118;2022-11-14T09:14:47;25.50;31.50
23311;DHT22;11828;51.508;18.118;2022-11-14T09:17:14;25.10;31.50
23311;DHT22;11828;51.508;18.118;2022-11-14T09:19:41;25.20;31.80
23311;DHT22;11828;51.508;18.118;2022-11-14T09:22:07;25.00;31.30
23311;DHT22;11828;51.508;18.118;2022-11-14T09:24:33;25.00;31.60
23311;DHT22;11828;51.508;18.118;2022-11-14T09:26:59;24.90;31.60
23311;DHT22;11828;51.508;18.118;2022-11-14T09:29:25;24.90;32.10
23311;DHT22;11828;51.508;18.118;2022-11-14T09:31:51;25.00;32.30
23311;DHT22;11828;51.508;18.118;2022-11-14T09:34:19;25.00;32.00
23311;DHT22;11828;51.508;18.118;2022-11-14T09:36:45;24.70;31.90
23311;DHT22;11828;51.508;18.118;2022-11-14T09:39:11;24.60;32.30
23311;DHT22;11828;51.508;18.118;2022-11-14T09:41:46;24.60;32.50
23311;DHT22;11828;51.508;18.118;2022-11-14T09:44:27;24.60;32.60
23311;DHT22;11828;51.508;18.118;2022-11-14T09:47:03;24.60;32.70
23311;DHT22;11828;51.508;18.118;2022-11-14T09:55:03;24.60;32.80
23311;DHT22;11828;51.508;18.118;2022-11-14T09:57:37;24.70;32.80
23311;DHT22;11828;51.508;18.118;2022-11-14T10:00:16;24.70;32.80
23311;DHT22;11828;51.508;18.118;2022-11-14T10:03:12;24.80;32.70
23311;DHT22;11828;51.508;18.118;2022-11-14T10:10:53;24.80;32.60
23311;DHT22;11828;51.508;18.118;2022-11-14T10:13:34;24.70;32.50
23311;DHT22;11828;51.508;18.118;2022-11-14T10:16:17;24.70;32.70
23311;DHT22;11828;51.508;18.118;2022-11-14T10:24:37;24.90;32.60
23311;DHT22;11828;51.508;18.118;2022-11-14T10:27:18;25.10;32.50
23311;DHT22;11828;51.508;18.118;2022-11-14T10:29:57;25.10;32.10
23311;DHT22;11828;51.508;18.118;2022-11-14T10:38:13;25.10;32.00
23311;DHT22;11828;51.508;18.118;2022-11-14T10:40:49;25.30;32.00
23311;DHT22;11828;51.508;18.118;2022-11-14T10:43:38;25.50;31.90
23311;DHT22;11828;51.508;18.118;2022-11-14T10:46:33;25.50;31.70
23311;DHT22;11828;51.508;18.118;2022-11-14T10:49:22;25.50;31.40
23311;DHT22;11828;51.508;18.118;2022-11-14T10:51:52;25.70;31.40
23311;DHT22;11828;51.508;18.118;2022-11-14T10:57:21;25.80;31.10
23311;DHT22;11828;51.508;18.118;2022-11-14T10:59:47;25.90;31.10
23311;DHT22;11828;51.508;18.118;2022-11-14T11:02:14;26.10;31.30
23311;DHT22;11828;51.508;18.118;2022-11-14T11:04:42;26.00;31.20
23311;DHT22;11828;51.508;18.118;2022-11-14T11:09:39;25.90;30.90
23311;DHT22;11828;51.508;18.118;2022-11-14T11:12:40;25.80;31.00
23311;DHT22;11828;51.508;18.118;2022-11-14T11:15:17;25.80;31.20
23311;DHT22;11828;51.508;18.118;2022-11-14T11:18:00;25.90;31.10
23311;DHT22;11828;51.508;18.118;2022-11-14T11:20:34;26.00;31.40
23311;DHT22;11828;51.508;18.118;2022-11-14T11:23:06;26.10;31.40
23311;DHT22;11828;51.508;18.118;2022-11-14T11:25:43;26.10;30.90
23311;DHT22;11828;51.508;18.118;2022-11-14T11:28:20;25.90;30.80
23311;DHT22;11828;51.508;18.118;2022-11-14T11:31:01;25.90;31.10
23311;DHT22;11828;51.508;18.118;2022-11-14T11:33:36;26.00;31.10
23311;DHT22;11828;51.508;18.118;2022-11-14T11:36:12;26.10;31.00
23311;DHT22;11828;51.508;18.118;2022-11-14T11:38:41;26.10;30.80
23311;DHT22;11828;51.508;18.118;2022-11-14T11:44:04;25.90;30.90
23311;DHT22;11828;51.508;18.118;2022-11-14T11:46:50;25.80;31.00
23311;DHT22;11828;51.508;18.118;2022-11-14T11:49:39;25.80;30.90
23311;DHT22;11828;51.508;18.118;2022-11-14T11:52:31;25.90;31.00
23311;DHT22;11828;51.508;18.118;2022-11-14T11:55:35;25.80;31.20
23311;DHT22;11828;51.508;18.118;2022-11-14T12:01:14;26.40;30.70
23311;DHT22;11828;51.508;18.118;2022-11-14T12:03:48;26.50;31.50
23311;DHT22;11828;51.508;18.118;2022-11-14T12:06:21;26.70;30.80
23311;DHT22;11828;51.508;18.118;2022-11-14T12:09:17;26.90;30.60
23311;DHT22;11828;51.508;18.118;2022-11-14T12:11:48;27.00;30.20
23311;DHT22;11828;51.508;18.118;2022-11-14T12:17:25;26.70;30.00
23311;DHT22;11828;51.508;18.118;2022-11-14T12:26:31;26.70;30.40
23311;DHT22;11828;51.508;18.118;2022-11-14T12:35:22;26.40;30.60
23311;DHT22;11828;51.508;18.118;2022-11-14T12:37:52;26.50;30.30
23311;DHT22;11828;51.508;18.118;2022-11-14T12:40:23;26.80;30.40
23311;DHT22;11828;51.508;18.118;2022-11-14T12:42:52;26.80;30.00
23311;DHT22;11828;51.508;18.118;2022-11-14T12:50:52;26.30;30.40
23311;DHT22;11828;51.508;18.118;2022-11-14T13:02:39;26.60;30.10
23311;DHT22;11828;51.508;18.118;2022-11-14T13:05:41;26.50;30.40
23311;DHT22;11828;51.508;18.118;2022-11-14T13:14:24;26.50;30.40
23311;DHT22;11828;51.508;18.118;2022-11-14T13:33:49;26.10;30.90
23311;DHT22;11828;51.508;18.118;2022-11-14T13:36:58;26.00;31.00
23311;DHT22;11828;51.508;18.118;2022-11-14T13:50:35;25.30;31.80
23311;DHT22;11828;51.508;18.118;2022-11-14T13:53:10;25.40;31.90
23311;DHT22;11828;51.508;18.118;2022-11-14T13:56:00;25.50;32.00
23311;DHT22;11828;51.508;18.118;2022-11-14T13:58:56;25.50;32.00
23311;DHT22;11828;51.508;18.118;2022-11-14T14:17:06;25.30;32.00
23311;DHT22;11828;51.508;18.118;2022-11-14T14:19:58;25.40;32.00
23311;DHT22;11828;51.508;18.118;2022-11-14T14:25:22;25.50;31.90
23311;DHT22;11828;51.508;18.118;2022-11-14T14:31:11;25.40;32.20
23311;DHT22;11828;51.508;18.118;2022-11-14T14:33:41;25.30;32.30
23311;DHT22;11828;51.508;18.118;2022-11-14T14:36:25;25.20;32.20
23311;DHT22;11828;51.508;18.118;2022-11-14T14:39:16;25.00;32.50
23311;DHT22;11828;51.508;18.118;2022-11-14T14:41:44;24.80;32.70
23311;DHT22;11828;51.508;18.118;2022-11-14T14:44:20;24.60;33.00
23311;DHT22;11828;51.508;18.118;2022-11-14T14:46:57;24.60;33.20
23311;DHT22;11828;51.508;18.118;2022-11-14T14:49:34;24.60;33.50
23311;DHT22;11828;51.508;18.118;2022-11-14T14:54:53;24.60;33.50
23311;DHT22;11828;51.508;18.118;2022-11-14T14:57:20;24.40;33.40
23311;DHT22;11828;51.508;18.118;2022-11-14T14:59:58;24.40;33.50
23311;DHT22;11828;51.508;18.118;2022-11-14T15:02:26;24.40;33.50
23311;DHT22;11828;51.508;18.118;2022-11-14T15:04:53;24.40;33.50
23311;DHT22;11828;51.508;18.118;2022-11-14T15:07:23;24.50;33.40
23311;DHT22;11828;51.508;18.118;2022-11-14T15:09:51;24.50;33.30
23311;DHT22;11828;51.508;18.118;2022-11-14T15:12:23;24.60;33.20
23311;DHT22;11828;51.508;18.118;2022-11-14T15:14:52;24.50;33.10
23311;DHT22;11828;51.508;18.118;2022-11-14T15:17:22;24.40;33.30
23311;DHT22;11828;51.508;18.118;2022-11-14T15:19:51;24.40;33.40
23311;DHT22;11828;51.508;18.118;2022-11-14T15:25:02;24.20;33.50
23311;DHT22;11828;51.508;18.118;2022-11-14T15:27:51;24.00;33.80
23311;DHT22;11828;51.508;18.118;2022-11-14T15:30:24;24.00;33.90
23311;DHT22;11828;51.508;18.118;2022-11-14T15:32:54;24.10;33.80
23311;DHT22;11828;51.508;18.118;2022-11-14T15:35:35;24.30;33.50
23311;DHT22;11828;51.508;18.118;2022-11-14T15:40:42;24.60;33.10
23311;DHT22;11828;51.508;18.118;2022-11-14T15:43:34;24.70;32.70
23311;DHT22;11828;51.508;18.118;2022-11-14T15:46:26;24.90;32.60
23311;DHT22;11828;51.508;18.118;2022-11-14T15:51:47;25.00;32.00
23311;DHT22;11828;51.508;18.118;2022-11-14T15:54:34;24.90;32.10
23311;DHT22;11828;51.508;18.118;2022-11-14T15:57:11;24.80;32.20
23311;DHT22;11828;51.508;18.118;2022-11-14T15:59:39;24.60;32.50
23311;DHT22;11828;51.508;18.118;2022-11-14T16:04:39;24.30;33.00
23311;DHT22;11828;51.508;18.118;2022-11-14T16:07:05;24.20;33.00
23311;DHT22;11828;51.508;18.118;2022-11-14T16:09:34;24.20;33.10
23311;DHT22;11828;51.508;18.118;2022-11-14T16:12:00;24.20;33.20
23311;DHT22;11828;51.508;18.118;2022-11-14T16:14:26;24.20;33.10
23311;DHT22;11828;51.508;18.118;2022-11-14T16:16:52;24.30;32.90
23311;DHT22;11828;51.508;18.118;2022-11-14T16:19:19;24.20;33.00
23311;DHT22;11828;51.508;18.118;2022-11-14T16:21:46;24.30;32.80
23311;DHT22;11828;51.508;18.118;2022-11-14T16:24:16;24.40;32.70
23311;DHT22;11828;51.508;18.118;2022-11-14T16:26:44;24.40;32.80
23311;DHT22;11828;51.508;18.118;2022-11-14T16:29:10;24.40;32.40
23311;DHT22;11828;51.508;18.118;2022-11-14T16:31:37;24.40;32.60
23311;DHT22;11828;51.508;18.118;2022-11-14T16:34:03;24.40;32.70
23311;DHT22;11828;51.508;18.118;2022-11-14T16:36:30;24.30;32.70
23311;DHT22;11828;51.508;18.118;2022-11-14T16:38:58;24.20;32.70
23311;DHT22;11828;51.508;18.118;2022-11-14T16:41:26;24.20;32.80
23311;DHT22;11828;51.508;18.118;2022-11-14T16:43:53;24.10;32.90
23311;DHT22;11828;51.508;18.118;2022-11-14T16:46:20;24.20;32.80
23311;DHT22;11828;51.508;18.118;2022-11-14T16:48:47;24.30;32.70
23311;DHT22;11828;51.508;18.118;2022-11-14T16:51:13;24.40;32.50
23311;DHT22;11828;51.508;18.118;2022-11-14T16:53:40;24.50;32.40
23311;DHT22;11828;51.508;18.118;2022-11-14T16:56:10;24.40;32.20
23311;DHT22;11828;51.508;18.118;2022-11-14T16:58:38;24.40;32.20
23311;DHT22;11828;51.508;18.118;2022-11-14T17:01:06;24.40;32.20
23311;DHT22;11828;51.508;18.118;2022-11-14T17:03:33;24.40;32.10
23311;DHT22;11828;51.508;18.118;2022-11-14T17:05:59;24.50;32.20
23311;DHT22;11828;51.508;18.118;2022-11-14T17:08:25;24.50;32.10
23311;DHT22;11828;51.508;18.118;2022-11-14T17:10:51;24.60;31.80
23311;DHT22;11828;51.508;18.118;2022-11-14T17:13:17;24.60;31.70
23311;DHT22;11828;51.508;18.118;2022-11-14T17:15:43;24.50;31.70
23311;DHT22;11828;51.508;18.118;2022-11-14T17:18:10;24.30;31.90
23311;DHT22;11828;51.508;18.118;2022-11-14T17:20:37;24.30;32.00
23311;DHT22;11828;51.508;18.118;2022-11-14T17:23:03;24.20;32.20
23311;DHT22;11828;51.508;18.118;2022-11-14T17:25:29;24.00;32.30
23311;DHT22;11828;51.508;18.118;2022-11-14T17:27:56;23.90;32.60
23311;DHT22;11828;51.508;18.118;2022-11-14T17:30:22;23.80;32.70
23311;DHT22;11828;51.508;18.118;2022-11-14T17:32:48;24.00;32.70
23311;DHT22;11828;51.508;18.118;2022-11-14T17:35:14;24.00;33.30
23311;DHT22;11828;51.508;18.118;2022-11-14T17:37:40;24.00;32.50
23311;DHT22;11828;51.508;18.118;2022-11-14T17:40:07;24.20;32.50
23311;DHT22;11828;51.508;18.118;2022-11-14T17:42:34;24.20;32.20
23311;DHT22;11828;51.508;18.118;2022-11-14T17:45:00;24.30;32.10
23311;DHT22;11828;51.508;18.118;2022-11-14T17:47:27;24.20;31.90
23311;DHT22;11828;51.508;18.118;2022-11-14T17:49:53;24.20;31.80
23311;DHT22;11828;51.508;18.118;2022-11-14T17:52:19;24.20;31.70
23311;DHT22;11828;51.508;18.118;2022-11-14T17:54:45;24.20;31.70
23311;DHT22;11828;51.508;18.118;2022-11-14T17:57:11;24.20;31.60
23311;DHT22;11828;51.508;18.118;2022-11-14T17:59:37;24.30;31.50